sensor_id;sensor_type;location;lat;lon;timestamp;temperature;humidity
3850;DHT22;1940;51.052;13.678;2022-08-03T00:02:22;21.20;72.80
3850;DHT22;1940;51.052;13.678;2022-08-03T00:04:47;21.20;73.00
3850;DHT22;1940;51.052;13.678;2022-08-03T00:07:13;21.10;73.20
3850;DHT22;1940;51.052;13.678;2022-08-03T00:09:39;21.10;73.20
3850;DHT22;1940;51.052;13.678;2022-08-03T00:12:05;21.10;73.30
3850;DHT22;1940;51.052;13.678;2022-08-03T00:14:31;21.00;73.40
3850;DHT22;1940;51.052;13.678;2022-08-03T00:16:56;21.00;73.50
3850;DHT22;1940;51.052;13.678;2022-08-03T00:19:22;21.00;73.70
3850;DHT22;1940;51.052;13.678;2022-08-03T00:21:48;20.90;73.80
3850;DHT22;1940;51.052;13.678;2022-08-03T00:24:14;20.90;73.90
3850;DHT22;1940;51.052;13.678;2022-08-03T00:26:39;20.90;73.90
3850;DHT22;1940;51.052;13.678;2022-08-03T00:29:05;20.90;73.80
3850;DHT22;1940;51.052;13.678;2022-08-03T00:31:30;20.90;74.00
3850;DHT22;1940;51.052;13.678;2022-08-03T00:33:56;20.90;73.90
3850;DHT22;1940;51.052;13.678;2022-08-03T00:36:22;20.90;74.00
3850;DHT22;1940;51.052;13.678;2022-08-03T00:38:47;20.90;74.10
3850;DHT22;1940;51.052;13.678;2022-08-03T00:41:13;20.90;74.20
3850;DHT22;1940;51.052;13.678;2022-08-03T00:43:39;20.90;74.30
3850;DHT22;1940;51.052;13.678;2022-08-03T00:46:04;20.80;74.50
3850;DHT22;1940;51.052;13.678;2022-08-03T00:48:30;20.80;74.60
3850;DHT22;1940;51.052;13.678;2022-08-03T00:50:56;20.80;74.60
3850;DHT22;1940;51.052;13.678;2022-08-03T00:53:22;20.70;74.80
3850;DHT22;1940;51.052;13.678;2022-08-03T00:55:48;20.70;74.90
3850;DHT22;1940;51.052;13.678;2022-08-03T00:58:14;20.60;75.10
3850;DHT22;1940;51.052;13.678;2022-08-03T01:00:40;20.60;75.20
3850;DHT22;1940;51.052;13.678;2022-08-03T01:03:08;20.60;75.30
3850;DHT22;1940;51.052;13.678;2022-08-03T01:11:11;20.40;75.80
3850;DHT22;1940;51.052;13.678;2022-08-03T01:13:44;20.40;75.90
3850;DHT22;1940;51.052;13.678;2022-08-03T01:16:29;20.40;76.10
3850;DHT22;1940;51.052;13.678;2022-08-03T01:28:01;20.30;76.40
3850;DHT22;1940;51.052;13.678;2022-08-03T01:30:32;20.20;76.60
3850;DHT22;1940;51.052;13.678;2022-08-03T01:33:21;20.10;76.90
3850;DHT22;1940;51.052;13.678;2022-08-03T01:35:57;20.20;76.90
3850;DHT22;1940;51.052;13.678;2022-08-03T01:38:27;20.10;77.00
3850;DHT22;1940;51.052;13.678;2022-08-03T01:40:55;20.10;77.10
3850;DHT22;1940;51.052;13.678;2022-08-03T01:43:25;20.10;77.10
3850;DHT22;1940;51.052;13.678;2022-08-03T01:45:55;20.10;77.40
3850;DHT22;1940;51.052;13.678;2022-08-03T01:48:22;20.00;77.40
3850;DHT22;1940;51.052;13.678;2022-08-03T01:50:48;20.00;77.70
3850;DHT22;1940;51.052;13.678;2022-08-03T01:53:16;20.00;77.70
3850;DHT22;1940;51.052;13.678;2022-08-03T01:55:45;19.90;77.70
3850;DHT22;1940;51.052;13.678;2022-08-03T01:58:14;19.90;77.80
3850;DHT22;1940;51.052;13.678;2022-08-03T02:00:40;19.90;78.00
3850;DHT22;1940;51.052;13.678;2022-08-03T02:03:07;19.90;78.00
3850;DHT22;1940;51.052;13.678;2022-08-03T02:05:34;19.90;78.10
3850;DHT22;1940;51.052;13.678;2022-08-03T02:08:02;19.80;78.30
3850;DHT22;1940;51.052;13.678;2022-08-03T02:10:30;19.90;78.20
3850;DHT22;1940;51.052;13.678;2022-08-03T02:12:58;19.80;78.10
3850;DHT22;1940;51.052;13.678;2022-08-03T02:15:25;19.80;78.30
3850;DHT22;1940;51.052;13.678;2022-08-03T02:17:52;19.80;78.50
3850;DHT22;1940;51.052;13.678;2022-08-03T02:20:20;19.70;78.70
3850;DHT22;1940;51.052;13.678;2022-08-03T02:22:46;19.70;78.80
3850;DHT22;1940;51.052;13.678;2022-08-03T02:25:14;19.70;78.80
3850;DHT22;1940;51.052;13.678;2022-08-03T02:27:48;19.70;78.80
3850;DHT22;1940;51.052;13.678;2022-08-03T02:30:15;19.70;78.70
3850;DHT22;1940;51.052;13.678;2022-08-03T02:32:43;19.80;78.60
3850;DHT22;1940;51.052;13.678;2022-08-03T02:35:14;19.80;78.50
3850;DHT22;1940;51.052;13.678;2022-08-03T02:37:46;19.80;78.50
3850;DHT22;1940;51.052;13.678;2022-08-03T02:40:14;19.70;78.60
3850;DHT22;1940;51.052;13.678;2022-08-03T02:42:41;19.70;78.80
3850;DHT22;1940;51.052;13.678;2022-08-03T02:45:09;19.70;78.80
3850;DHT22;1940;51.052;13.678;2022-08-03T02:47:40;19.60;78.90
3850;DHT22;1940;51.052;13.678;2022-08-03T02:50:10;19.60;79.10
3850;DHT22;1940;51.052;13.678;2022-08-03T02:52:37;19.60;79.20
3850;DHT22;1940;51.052;13.678;2022-08-03T02:55:05;19.60;79.30
3850;DHT22;1940;51.052;13.678;2022-08-03T02:57:34;19.60;79.30
3850;DHT22;1940;51.052;13.678;2022-08-03T03:00:00;19.50;79.30
3850;DHT22;1940;51.052;13.678;2022-08-03T03:02:27;19.50;79.50
3850;DHT22;1940;51.052;13.678;2022-08-03T03:04:54;19.50;79.60
3850;DHT22;1940;51.052;13.678;2022-08-03T03:07:21;19.40;79.70
3850;DHT22;1940;51.052;13.678;2022-08-03T03:09:47;19.40;79.90
3850;DHT22;1940;51.052;13.678;2022-08-03T03:12:13;19.40;79.90
3850;DHT22;1940;51.052;13.678;2022-08-03T03:14:40;19.30;80.00
3850;DHT22;1940;51.052;13.678;2022-08-03T03:17:06;19.30;80.00
3850;DHT22;1940;51.052;13.678;2022-08-03T03:19:33;19.20;80.20
3850;DHT22;1940;51.052;13.678;2022-08-03T03:22:00;19.20;80.30
3850;DHT22;1940;51.052;13.678;2022-08-03T03:24:28;19.20;80.40
3850;DHT22;1940;51.052;13.678;2022-08-03T03:26:55;19.20;80.40
3850;DHT22;1940;51.052;13.678;2022-08-03T03:29:21;19.20;80.50
3850;DHT22;1940;51.052;13.678;2022-08-03T03:31:47;19.20;80.50
3850;DHT22;1940;51.052;13.678;2022-08-03T03:34:14;19.20;80.40
3850;DHT22;1940;51.052;13.678;2022-08-03T03:40:01;19.20;80.50
3850;DHT22;1940;51.052;13.678;2022-08-03T03:42:28;19.20;80.70
3850;DHT22;1940;51.052;13.678;2022-08-03T03:44:58;19.10;80.70
3850;DHT22;1940;51.052;13.678;2022-08-03T03:47:51;19.20;80.60
3850;DHT22;1940;51.052;13.678;2022-08-03T03:50:17;19.20;80.60
3850;DHT22;1940;51.052;13.678;2022-08-03T03:52:43;19.20;80.60
3850;DHT22;1940;51.052;13.678;2022-08-03T03:55:09;19.30;80.70
3850;DHT22;1940;51.052;13.678;2022-08-03T03:57:34;19.50;80.20
3850;DHT22;1940;51.052;13.678;2022-08-03T04:00:00;19.80;79.50
3850;DHT22;1940;51.052;13.678;2022-08-03T04:02:26;20.10;78.60
3850;DHT22;1940;51.052;13.678;2022-08-03T04:04:52;20.50;77.40
3850;DHT22;1940;51.052;13.678;2022-08-03T04:07:47;20.90;76.60
3850;DHT22;1940;51.052;13.678;2022-08-03T04:10:35;21.50;75.20
3850;DHT22;1940;51.052;13.678;2022-08-03T04:13:21;22.00;73.60
3850;DHT22;1940;51.052;13.678;2022-08-03T04:15:47;22.40;72.20
3850;DHT22;1940;51.052;13.678;2022-08-03T04:18:14;22.90;71.00
3850;DHT22;1940;51.052;13.678;2022-08-03T04:20:45;23.50;69.60
3850;DHT22;1940;51.052;13.678;2022-08-03T04:23:12;24.00;67.90
3850;DHT22;1940;51.052;13.678;2022-08-03T04:25:39;24.60;66.60
3850;DHT22;1940;51.052;13.678;2022-08-03T04:28:07;25.10;65.20
3850;DHT22;1940;51.052;13.678;2022-08-03T04:30:35;25.60;64.10
3850;DHT22;1940;51.052;13.678;2022-08-03T04:33:02;26.20;62.60
3850;DHT22;1940;51.052;13.678;2022-08-03T04:35:32;26.60;61.50
3850;DHT22;1940;51.052;13.678;2022-08-03T04:38:02;27.00;60.80
3850;DHT22;1940;51.052;13.678;2022-08-03T04:40:32;27.40;60.00
3850;DHT22;1940;51.052;13.678;2022-08-03T04:42:58;27.90;59.10
3850;DHT22;1940;51.052;13.678;2022-08-03T04:45:26;28.50;57.90
3850;DHT22;1940;51.052;13.678;2022-08-03T04:47:53;29.10;56.60
3850;DHT22;1940;51.052;13.678;2022-08-03T04:50:19;29.50;55.90
3850;DHT22;1940;51.052;13.678;2022-08-03T04:52:45;29.90;55.10
3850;DHT22;1940;51.052;13.678;2022-08-03T04:55:11;30.20;54.10
3850;DHT22;1940;51.052;13.678;2022-08-03T04:57:37;30.40;54.10
3850;DHT22;1940;51.052;13.678;2022-08-03T05:00:03;30.40;53.50
3850;DHT22;1940;51.052;13.678;2022-08-03T05:02:30;29.90;54.20
3850;DHT22;1940;51.052;13.678;2022-08-03T05:04:56;29.70;54.50
3850;DHT22;1940;51.052;13.678;2022-08-03T05:07:22;29.60;55.10
3850;DHT22;1940;51.052;13.678;2022-08-03T05:09:48;29.70;54.60
3850;DHT22;1940;51.052;13.678;2022-08-03T05:12:13;29.60;54.80
3850;DHT22;1940;51.052;13.678;2022-08-03T05:14:41;29.70;54.50
3850;DHT22;1940;51.052;13.678;2022-08-03T05:17:07;29.50;54.70
3850;DHT22;1940;51.052;13.678;2022-08-03T05:19:33;29.40;55.00
3850;DHT22;1940;51.052;13.678;2022-08-03T05:21:59;29.60;54.90
3850;DHT22;1940;51.052;13.678;2022-08-03T05:24:25;29.80;54.70
3850;DHT22;1940;51.052;13.678;2022-08-03T05:26:50;30.10;54.10
3850;DHT22;1940;51.052;13.678;2022-08-03T05:29:16;30.20;53.60
3850;DHT22;1940;51.052;13.678;2022-08-03T05:31:41;30.20;53.40
3850;DHT22;1940;51.052;13.678;2022-08-03T05:34:07;30.30;53.60
3850;DHT22;1940;51.052;13.678;2022-08-03T05:36:33;30.40;53.40
3850;DHT22;1940;51.052;13.678;2022-08-03T05:38:59;30.60;52.70
3850;DHT22;1940;51.052;13.678;2022-08-03T05:41:24;30.70;52.80
3850;DHT22;1940;51.052;13.678;2022-08-03T05:43:53;30.90;52.60
3850;DHT22;1940;51.052;13.678;2022-08-03T05:46:20;31.20;52.00
3850;DHT22;1940;51.052;13.678;2022-08-03T05:48:48;31.50;51.60
3850;DHT22;1940;51.052;13.678;2022-08-03T05:51:14;31.80;51.40
3850;DHT22;1940;51.052;13.678;2022-08-03T05:53:40;32.10;50.90
3850;DHT22;1940;51.052;13.678;2022-08-03T05:56:06;32.20;50.70
3850;DHT22;1940;51.052;13.678;2022-08-03T05:58:32;32.40;50.30
3850;DHT22;1940;51.052;13.678;2022-08-03T06:00:57;32.80;49.90
3850;DHT22;1940;51.052;13.678;2022-08-03T06:03:23;32.90;49.50
3850;DHT22;1940;51.052;13.678;2022-08-03T06:05:49;33.00;49.50
3850;DHT22;1940;51.052;13.678;2022-08-03T06:08:14;33.20;49.30
3850;DHT22;1940;51.052;13.678;2022-08-03T06:10:40;33.30;48.90
3850;DHT22;1940;51.052;13.678;2022-08-03T06:13:05;33.50;48.80
3850;DHT22;1940;51.052;13.678;2022-08-03T06:15:31;33.40;48.80
3850;DHT22;1940;51.052;13.678;2022-08-03T06:17:58;33.50;48.70
3850;DHT22;1940;51.052;13.678;2022-08-03T06:20:24;33.50;48.60
3850;DHT22;1940;51.052;13.678;2022-08-03T06:22:50;33.50;48.70
3850;DHT22;1940;51.052;13.678;2022-08-03T06:25:15;33.70;48.20
3850;DHT22;1940;51.052;13.678;2022-08-03T06:27:42;33.40;48.70
3850;DHT22;1940;51.052;13.678;2022-08-03T06:30:09;33.30;49.00
3850;DHT22;1940;51.052;13.678;2022-08-03T06:32:36;33.50;48.80
3850;DHT22;1940;51.052;13.678;2022-08-03T06:35:03;33.60;48.40
3850;DHT22;1940;51.052;13.678;2022-08-03T06:37:28;33.70;48.20
3850;DHT22;1940;51.052;13.678;2022-08-03T06:39:54;33.70;48.40
3850;DHT22;1940;51.052;13.678;2022-08-03T06:42:20;33.80;48.20
3850;DHT22;1940;51.052;13.678;2022-08-03T06:44:46;33.80;48.10
3850;DHT22;1940;51.052;13.678;2022-08-03T06:47:12;33.20;48.90
3850;DHT22;1940;51.052;13.678;2022-08-03T06:49:37;33.00;49.40
3850;DHT22;1940;51.052;13.678;2022-08-03T06:52:05;33.50;48.80
3850;DHT22;1940;51.052;13.678;2022-08-03T06:54:30;33.60;48.50
3850;DHT22;1940;51.052;13.678;2022-08-03T06:56:56;33.80;48.40
3850;DHT22;1940;51.052;13.678;2022-08-03T06:59:22;33.70;48.20
3850;DHT22;1940;51.052;13.678;2022-08-03T07:01:47;33.90;48.00
3850;DHT22;1940;51.052;13.678;2022-08-03T07:04:13;34.20;47.70
3850;DHT22;1940;51.052;13.678;2022-08-03T07:06:38;34.50;47.20
3850;DHT22;1940;51.052;13.678;2022-08-03T07:09:04;35.00;46.80
3850;DHT22;1940;51.052;13.678;2022-08-03T07:11:30;35.10;46.60
3850;DHT22;1940;51.052;13.678;2022-08-03T07:13:56;35.10;46.40
3850;DHT22;1940;51.052;13.678;2022-08-03T07:16:21;34.50;47.20
3850;DHT22;1940;51.052;13.678;2022-08-03T07:18:47;34.80;46.90
3850;DHT22;1940;51.052;13.678;2022-08-03T07:21:13;35.20;46.20
3850;DHT22;1940;51.052;13.678;2022-08-03T07:23:40;35.30;45.90
3850;DHT22;1940;51.052;13.678;2022-08-03T07:26:05;35.30;46.20
3850;DHT22;1940;51.052;13.678;2022-08-03T07:28:31;35.70;45.50
3850;DHT22;1940;51.052;13.678;2022-08-03T07:30:57;35.90;45.30
3850;DHT22;1940;51.052;13.678;2022-08-03T07:33:24;35.80;45.30
3850;DHT22;1940;51.052;13.678;2022-08-03T07:35:49;35.60;45.60
3850;DHT22;1940;51.052;13.678;2022-08-03T07:38:15;35.80;45.30
3850;DHT22;1940;51.052;13.678;2022-08-03T07:40:41;36.30;44.90
3850;DHT22;1940;51.052;13.678;2022-08-03T07:43:06;36.70;44.40
3850;DHT22;1940;51.052;13.678;2022-08-03T07:45:32;36.70;44.40
3850;DHT22;1940;51.052;13.678;2022-08-03T07:47:58;36.80;44.00
3850;DHT22;1940;51.052;13.678;2022-08-03T07:50:24;36.80;44.20
3850;DHT22;1940;51.052;13.678;2022-08-03T07:52:50;37.20;43.70
3850;DHT22;1940;51.052;13.678;2022-08-03T07:55:22;37.20;43.80
3850;DHT22;1940;51.052;13.678;2022-08-03T07:58:07;37.40;43.30
3850;DHT22;1940;51.052;13.678;2022-08-03T08:00:43;37.40;43.50
3850;DHT22;1940;51.052;13.678;2022-08-03T08:03:09;37.90;43.00
3850;DHT22;1940;51.052;13.678;2022-08-03T08:05:35;38.20;42.60
3850;DHT22;1940;51.052;13.678;2022-08-03T08:08:02;38.00;42.70
3850;DHT22;1940;51.052;13.678;2022-08-03T08:10:28;38.90;41.90
3850;DHT22;1940;51.052;13.678;2022-08-03T08:12:54;38.80;41.90
3850;DHT22;1940;51.052;13.678;2022-08-03T08:15:20;38.90;41.70
3850;DHT22;1940;51.052;13.678;2022-08-03T08:17:48;39.40;41.10
3850;DHT22;1940;51.052;13.678;2022-08-03T08:20:23;39.90;40.70
3850;DHT22;1940;51.052;13.678;2022-08-03T08:22:49;39.10;41.10
3850;DHT22;1940;51.052;13.678;2022-08-03T08:25:14;38.90;41.80
3850;DHT22;1940;51.052;13.678;2022-08-03T08:27:44;39.10;41.50
3850;DHT22;1940;51.052;13.678;2022-08-03T08:30:11;39.40;41.20
3850;DHT22;1940;51.052;13.678;2022-08-03T08:32:37;40.00;40.70
3850;DHT22;1940;51.052;13.678;2022-08-03T08:35:04;39.90;40.70
3850;DHT22;1940;51.052;13.678;2022-08-03T08:37:29;39.50;41.10
3850;DHT22;1940;51.052;13.678;2022-08-03T08:39:55;40.00;40.60
3850;DHT22;1940;51.052;13.678;2022-08-03T08:42:21;40.00;40.70
3850;DHT22;1940;51.052;13.678;2022-08-03T08:44:47;40.10;40.50
3850;DHT22;1940;51.052;13.678;2022-08-03T08:47:13;40.10;40.50
3850;DHT22;1940;51.052;13.678;2022-08-03T08:49:40;40.60;39.90
3850;DHT22;1940;51.052;13.678;2022-08-03T08:52:10;40.90;39.50
3850;DHT22;1940;51.052;13.678;2022-08-03T08:54:39;40.90;39.60
3850;DHT22;1940;51.052;13.678;2022-08-03T08:57:06;40.40;39.70
3850;DHT22;1940;51.052;13.678;2022-08-03T08:59:33;40.00;40.10
3850;DHT22;1940;51.052;13.678;2022-08-03T09:01:59;39.70;40.90
3850;DHT22;1940;51.052;13.678;2022-08-03T09:04:27;39.60;40.50
3850;DHT22;1940;51.052;13.678;2022-08-03T09:06:52;39.00;40.80
3850;DHT22;1940;51.052;13.678;2022-08-03T09:09:18;38.80;41.20
3850;DHT22;1940;51.052;13.678;2022-08-03T09:11:44;39.00;40.80
3850;DHT22;1940;51.052;13.678;2022-08-03T09:14:10;39.20;40.50
3850;DHT22;1940;51.052;13.678;2022-08-03T09:16:36;39.00;40.80
3850;DHT22;1940;51.052;13.678;2022-08-03T09:19:12;39.10;40.50
3850;DHT22;1940;51.052;13.678;2022-08-03T09:21:38;39.20;41.00
3850;DHT22;1940;51.052;13.678;2022-08-03T09:24:05;39.90;40.10
3850;DHT22;1940;51.052;13.678;2022-08-03T09:26:36;40.20;39.80
3850;DHT22;1940;51.052;13.678;2022-08-03T09:29:09;40.20;39.60
3850;DHT22;1940;51.052;13.678;2022-08-03T09:31:43;41.00;38.80
3850;DHT22;1940;51.052;13.678;2022-08-03T09:34:16;41.10;39.00
3850;DHT22;1940;51.052;13.678;2022-08-03T09:36:44;40.90;38.90
3850;DHT22;1940;51.052;13.678;2022-08-03T09:39:13;40.50;39.10
3850;DHT22;1940;51.052;13.678;2022-08-03T09:41:41;40.30;39.60
3850;DHT22;1940;51.052;13.678;2022-08-03T09:44:07;40.50;39.00
3850;DHT22;1940;51.052;13.678;2022-08-03T09:49:14;40.80;38.70
3850;DHT22;1940;51.052;13.678;2022-08-03T09:51:40;41.40;38.00
3850;DHT22;1940;51.052;13.678;2022-08-03T09:54:06;41.30;38.00
3850;DHT22;1940;51.052;13.678;2022-08-03T09:59:04;40.70;39.00
3850;DHT22;1940;51.052;13.678;2022-08-03T10:01:34;41.10;38.50
3850;DHT22;1940;51.052;13.678;2022-08-03T10:03:59;41.40;38.10
3850;DHT22;1940;51.052;13.678;2022-08-03T10:06:25;41.60;38.00
3850;DHT22;1940;51.052;13.678;2022-08-03T10:09:15;41.30;38.30
3850;DHT22;1940;51.052;13.678;2022-08-03T10:11:42;41.40;38.20
3850;DHT22;1940;51.052;13.678;2022-08-03T10:14:10;41.50;38.10
3850;DHT22;1940;51.052;13.678;2022-08-03T10:16:43;42.30;37.10
3850;DHT22;1940;51.052;13.678;2022-08-03T10:19:09;42.70;36.80
3850;DHT22;1940;51.052;13.678;2022-08-03T10:21:37;42.50;37.10
3850;DHT22;1940;51.052;13.678;2022-08-03T10:24:08;42.40;37.00
3850;DHT22;1940;51.052;13.678;2022-08-03T10:26:38;41.80;37.60
3850;DHT22;1940;51.052;13.678;2022-08-03T10:29:08;41.20;38.00
3850;DHT22;1940;51.052;13.678;2022-08-03T10:31:40;41.30;38.00
3850;DHT22;1940;51.052;13.678;2022-08-03T10:34:25;41.10;38.20
3850;DHT22;1940;51.052;13.678;2022-08-03T10:36:56;40.80;38.50
3850;DHT22;1940;51.052;13.678;2022-08-03T10:39:24;41.20;38.00
3850;DHT22;1940;51.052;13.678;2022-08-03T10:41:52;41.30;37.90
3850;DHT22;1940;51.052;13.678;2022-08-03T10:44:22;41.20;38.20
3850;DHT22;1940;51.052;13.678;2022-08-03T10:46:50;40.80;38.10
3850;DHT22;1940;51.052;13.678;2022-08-03T10:49:19;40.60;38.30
3850;DHT22;1940;51.052;13.678;2022-08-03T10:51:46;41.00;37.80
3850;DHT22;1940;51.052;13.678;2022-08-03T10:54:51;41.20;37.80
3850;DHT22;1940;51.052;13.678;2022-08-03T10:57:48;42.10;37.20
3850;DHT22;1940;51.052;13.678;2022-08-03T11:00:16;42.30;36.80
3850;DHT22;1940;51.052;13.678;2022-08-03T11:05:41;42.60;36.70
3850;DHT22;1940;51.052;13.678;2022-08-03T11:08:18;41.90;37.40
3850;DHT22;1940;51.052;13.678;2022-08-03T11:10:45;41.50;37.30
3850;DHT22;1940;51.052;13.678;2022-08-03T11:13:15;42.40;36.80
3850;DHT22;1940;51.052;13.678;2022-08-03T11:15:46;43.00;36.50
3850;DHT22;1940;51.052;13.678;2022-08-03T11:18:13;43.00;36.20
3850;DHT22;1940;51.052;13.678;2022-08-03T11:20:50;42.20;37.00
3850;DHT22;1940;51.052;13.678;2022-08-03T11:23:38;42.00;37.10
3850;DHT22;1940;51.052;13.678;2022-08-03T11:26:18;41.00;37.90
3850;DHT22;1940;51.052;13.678;2022-08-03T11:28:46;40.00;38.70
3850;DHT22;1940;51.052;13.678;2022-08-03T11:34:10;38.40;40.30
3850;DHT22;1940;51.052;13.678;2022-08-03T11:37:21;37.90;40.80
3850;DHT22;1940;51.052;13.678;2022-08-03T11:39:48;37.60;41.70
3850;DHT22;1940;51.052;13.678;2022-08-03T11:44:55;36.50;42.60
3850;DHT22;1940;51.052;13.678;2022-08-03T11:47:24;35.80;43.10
3850;DHT22;1940;51.052;13.678;2022-08-03T11:49:54;35.80;43.10
3850;DHT22;1940;51.052;13.678;2022-08-03T11:52:22;35.40;43.70
3850;DHT22;1940;51.052;13.678;2022-08-03T11:54:50;35.00;44.50
3850;DHT22;1940;51.052;13.678;2022-08-03T11:57:29;35.10;43.80
3850;DHT22;1940;51.052;13.678;2022-08-03T11:59:55;34.80;43.60
3850;DHT22;1940;51.052;13.678;2022-08-03T12:02:21;34.30;44.60
3850;DHT22;1940;51.052;13.678;2022-08-03T12:04:55;34.20;45.20
3850;DHT22;1940;51.052;13.678;2022-08-03T12:07:26;34.50;44.70
3850;DHT22;1940;51.052;13.678;2022-08-03T12:10:09;34.50;44.40
3850;DHT22;1940;51.052;13.678;2022-08-03T12:12:36;34.60;44.10
3850;DHT22;1940;51.052;13.678;2022-08-03T12:15:04;34.40;44.50
3850;DHT22;1940;51.052;13.678;2022-08-03T12:17:33;34.40;44.60
3850;DHT22;1940;51.052;13.678;2022-08-03T12:20:00;34.20;44.30
3850;DHT22;1940;51.052;13.678;2022-08-03T12:22:33;34.00;44.50
3850;DHT22;1940;51.052;13.678;2022-08-03T12:25:00;34.30;44.30
3850;DHT22;1940;51.052;13.678;2022-08-03T12:27:26;34.30;44.60
3850;DHT22;1940;51.052;13.678;2022-08-03T12:29:55;34.20;44.20
3850;DHT22;1940;51.052;13.678;2022-08-03T12:32:22;34.00;44.50
3850;DHT22;1940;51.052;13.678;2022-08-03T12:34:48;34.20;44.20
3850;DHT22;1940;51.052;13.678;2022-08-03T12:37:24;34.20;44.00
3850;DHT22;1940;51.052;13.678;2022-08-03T12:39:50;34.00;44.10
3850;DHT22;1940;51.052;13.678;2022-08-03T12:42:16;34.10;44.50
3850;DHT22;1940;51.052;13.678;2022-08-03T12:44:42;34.20;44.60
3850;DHT22;1940;51.052;13.678;2022-08-03T12:47:08;34.20;44.60
3850;DHT22;1940;51.052;13.678;2022-08-03T12:49:48;34.00;44.10
3850;DHT22;1940;51.052;13.678;2022-08-03T12:52:15;34.10;44.60
3850;DHT22;1940;51.052;13.678;2022-08-03T12:54:41;34.20;43.90
3850;DHT22;1940;51.052;13.678;2022-08-03T12:57:07;34.20;43.70
3850;DHT22;1940;51.052;13.678;2022-08-03T12:59:44;34.10;44.10
3850;DHT22;1940;51.052;13.678;2022-08-03T13:04:46;34.30;43.70
3850;DHT22;1940;51.052;13.678;2022-08-03T13:07:13;34.40;43.30
3850;DHT22;1940;51.052;13.678;2022-08-03T13:09:49;34.40;43.80
3850;DHT22;1940;51.052;13.678;2022-08-03T13:12:16;34.20;43.60
3850;DHT22;1940;51.052;13.678;2022-08-03T13:14:47;34.10;43.40
3850;DHT22;1940;51.052;13.678;2022-08-03T13:17:13;34.20;43.60
3850;DHT22;1940;51.052;13.678;2022-08-03T13:19:41;34.30;43.70
3850;DHT22;1940;51.052;13.678;2022-08-03T13:24:41;34.30;43.40
3850;DHT22;1940;51.052;13.678;2022-08-03T13:27:08;34.40;43.20
3850;DHT22;1940;51.052;13.678;2022-08-03T13:29:33;34.50;43.10
3850;DHT22;1940;51.052;13.678;2022-08-03T13:32:00;34.70;43.30
3850;DHT22;1940;51.052;13.678;2022-08-03T13:34:26;34.80;42.70
3850;DHT22;1940;51.052;13.678;2022-08-03T13:36:52;34.80;42.50
3850;DHT22;1940;51.052;13.678;2022-08-03T13:39:18;34.70;42.80
3850;DHT22;1940;51.052;13.678;2022-08-03T13:41:44;34.60;42.20
3850;DHT22;1940;51.052;13.678;2022-08-03T13:44:10;34.50;42.30
3850;DHT22;1940;51.052;13.678;2022-08-03T13:46:36;34.40;42.40
3850;DHT22;1940;51.052;13.678;2022-08-03T13:49:01;34.30;42.40
3850;DHT22;1940;51.052;13.678;2022-08-03T13:51:27;34.30;42.10
3850;DHT22;1940;51.052;13.678;2022-08-03T13:53:53;34.40;41.40
3850;DHT22;1940;51.052;13.678;2022-08-03T13:56:18;34.40;41.10
3850;DHT22;1940;51.052;13.678;2022-08-03T13:58:44;34.30;41.50
3850;DHT22;1940;51.052;13.678;2022-08-03T14:01:09;34.20;42.10
3850;DHT22;1940;51.052;13.678;2022-08-03T14:03:35;34.10;41.90
3850;DHT22;1940;51.052;13.678;2022-08-03T14:06:01;34.10;42.30
3850;DHT22;1940;51.052;13.678;2022-08-03T14:08:27;33.80;42.60
3850;DHT22;1940;51.052;13.678;2022-08-03T14:10:52;33.80;42.20
3850;DHT22;1940;51.052;13.678;2022-08-03T14:13:18;33.80;42.40
3850;DHT22;1940;51.052;13.678;2022-08-03T14:15:45;33.90;42.80
3850;DHT22;1940;51.052;13.678;2022-08-03T14:18:10;34.00;42.30
3850;DHT22;1940;51.052;13.678;2022-08-03T14:20:36;34.00;42.40
3850;DHT22;1940;51.052;13.678;2022-08-03T14:23:02;34.00;42.10
3850;DHT22;1940;51.052;13.678;2022-08-03T14:25:27;34.10;42.00
3850;DHT22;1940;51.052;13.678;2022-08-03T14:27:55;34.10;41.60
3850;DHT22;1940;51.052;13.678;2022-08-03T14:30:20;34.10;41.20
3850;DHT22;1940;51.052;13.678;2022-08-03T14:32:46;34.30;41.30
3850;DHT22;1940;51.052;13.678;2022-08-03T14:35:12;34.30;40.90
3850;DHT22;1940;51.052;13.678;2022-08-03T14:37:38;34.10;40.90
3850;DHT22;1940;51.052;13.678;2022-08-03T14:40:04;34.20;40.70
3850;DHT22;1940;51.052;13.678;2022-08-03T14:42:30;34.40;40.60
3850;DHT22;1940;51.052;13.678;2022-08-03T14:44:55;34.40;40.50
3850;DHT22;1940;51.052;13.678;2022-08-03T14:47:21;34.60;40.30
3850;DHT22;1940;51.052;13.678;2022-08-03T14:49:46;34.80;40.10
3850;DHT22;1940;51.052;13.678;2022-08-03T14:52:12;34.60;40.00
3850;DHT22;1940;51.052;13.678;2022-08-03T14:54:38;34.60;40.20
3850;DHT22;1940;51.052;13.678;2022-08-03T14:57:03;34.40;40.40
3850;DHT22;1940;51.052;13.678;2022-08-03T14:59:29;34.30;40.40
3850;DHT22;1940;51.052;13.678;2022-08-03T15:01:55;34.30;40.40
3850;DHT22;1940;51.052;13.678;2022-08-03T15:04:20;34.40;40.60
3850;DHT22;1940;51.052;13.678;2022-08-03T15:06:46;34.50;40.20
3850;DHT22;1940;51.052;13.678;2022-08-03T15:09:12;34.20;40.40
3850;DHT22;1940;51.052;13.678;2022-08-03T15:11:38;34.00;40.90
3850;DHT22;1940;51.052;13.678;2022-08-03T15:14:04;34.10;41.00
3850;DHT22;1940;51.052;13.678;2022-08-03T15:16:29;34.20;40.60
3850;DHT22;1940;51.052;13.678;2022-08-03T15:18:56;34.20;40.10
3850;DHT22;1940;51.052;13.678;2022-08-03T15:21:22;34.20;40.30
3850;DHT22;1940;51.052;13.678;2022-08-03T15:23:47;34.00;40.70
3850;DHT22;1940;51.052;13.678;2022-08-03T15:26:13;34.00;40.60
3850;DHT22;1940;51.052;13.678;2022-08-03T15:28:38;34.10;40.60
3850;DHT22;1940;51.052;13.678;2022-08-03T15:31:04;34.10;40.50
3850;DHT22;1940;51.052;13.678;2022-08-03T15:33:31;34.00;40.40
3850;DHT22;1940;51.052;13.678;2022-08-03T15:35:56;34.10;40.10
3850;DHT22;1940;51.052;13.678;2022-08-03T15:38:23;34.20;39.90
3850;DHT22;1940;51.052;13.678;2022-08-03T15:40:49;34.40;40.10
3850;DHT22;1940;51.052;13.678;2022-08-03T15:43:15;34.30;40.20
3850;DHT22;1940;51.052;13.678;2022-08-03T15:45:40;34.30;40.20
3850;DHT22;1940;51.052;13.678;2022-08-03T15:48:09;34.30;39.60
3850;DHT22;1940;51.052;13.678;2022-08-03T15:50:38;34.20;39.90
3850;DHT22;1940;51.052;13.678;2022-08-03T15:53:03;34.20;40.10
3850;DHT22;1940;51.052;13.678;2022-08-03T15:55:30;34.10;40.00
3850;DHT22;1940;51.052;13.678;2022-08-03T15:57:56;34.10;39.50
3850;DHT22;1940;51.052;13.678;2022-08-03T16:00:22;34.20;39.50
3850;DHT22;1940;51.052;13.678;2022-08-03T16:02:48;34.20;39.50
3850;DHT22;1940;51.052;13.678;2022-08-03T16:05:13;34.20;39.70
3850;DHT22;1940;51.052;13.678;2022-08-03T16:07:39;34.10;40.30
3850;DHT22;1940;51.052;13.678;2022-08-03T16:10:14;34.00;39.90
3850;DHT22;1940;51.052;13.678;2022-08-03T16:12:40;34.00;40.30
3850;DHT22;1940;51.052;13.678;2022-08-03T16:15:06;34.10;39.90
3850;DHT22;1940;51.052;13.678;2022-08-03T16:17:32;34.20;39.40
3850;DHT22;1940;51.052;13.678;2022-08-03T16:19:58;34.20;39.30
3850;DHT22;1940;51.052;13.678;2022-08-03T16:22:24;34.20;39.30
3850;DHT22;1940;51.052;13.678;2022-08-03T16:24:51;34.20;39.50
3850;DHT22;1940;51.052;13.678;2022-08-03T16:27:16;34.00;40.10